»·PEaware :: VRD349 KPHX-KSFO

VRD349 :: KPHX-KSFO

FLIGHT INFORMATION

Flight Status: Arrived
Operator:
Virgin America
More flights by this operator :: More flights under this callsign
Pilot: William B. (10095)
Aircraft: AIRBUS A320
(A320)
More flights by this aircraft type
Origin: KPHX Phoenix Sky Harbor Intl
United States
Destination: KSFO San Francisco Intl
United States
More flights between these airports :: More routes between these airports
Route: MAYSA5 SISIE DOVEE BTY RUSME DYAMD3
File this flight plan on PilotEdge
Remarks: P3d V3.4 Aerosoft A320
Altitude:
(Current/Filed)
340ft
Speed:
(Current/Filed)
300kts
Departed: 23-Jan-17 06:24 PM
Arrived: 23-Jan-17 08:05 PM
Distance/Time
Traveled:
565nm/1:41
Distance/Time
To Go:
Arrived

Flight Plot

Page will automatically refresh every two minutes.


Map Options




Map Legend


Flown Route
Filed Route
Departure Airport
Arrival Airport
Navaid (VOR, NDB)
Fix

Horizontal Profiles

Position Reports

Time Latitude Longitude Heading Altitude Ground
Speed
23-Jan-17 18:04 33.438206 -111.996211 243 1149ft 0kts
23-Jan-17 18:05 33.438206 -111.996211 243 1149ft 0kts
23-Jan-17 18:06 33.438206 -111.996211 243 1149ft 0kts
23-Jan-17 18:07 33.438206 -111.996211 243 1149ft 0kts
23-Jan-17 18:08 33.438206 -111.996211 243 1149ft 0kts
23-Jan-17 18:09 33.438206 -111.996211 243 1149ft 0kts
23-Jan-17 18:10 33.438206 -111.996211 243 1149ft 0kts
23-Jan-17 18:11 33.438206 -111.996211 243 1149ft 0kts
23-Jan-17 18:12 33.438206 -111.996211 243 1149ft 0kts
23-Jan-17 18:13 33.438206 -111.996211 243 1149ft 0kts
23-Jan-17 18:14 33.438206 -111.996211 243 1149ft 0kts
23-Jan-17 18:15 33.438206 -111.996211 243 1149ft 0kts
23-Jan-17 18:16 33.438206 -111.996211 243 1149ft 0kts
23-Jan-17 18:17 33.438278 -111.996020 260 1149ft 2kts
23-Jan-17 18:18 33.438102 -111.995678 3 1149ft 0kts
23-Jan-17 18:19 33.438104 -111.995678 3 1149ft 0kts
23-Jan-17 18:20 33.438106 -111.995677 3 1149ft 0kts
23-Jan-17 18:21 33.439155 -111.995626 2 1149ft 15kts
23-Jan-17 18:22 33.439681 -111.992681 83 1149ft 3kts
23-Jan-17 18:23 33.440792 -111.991656 279 1149ft 7kts
23-Jan-17 18:24 33.440842 -111.998462 271 1149ft 88kts
23-Jan-17 18:25 33.435846 -112.043719 254 2093ft 150kts
23-Jan-17 18:26 33.454187 -112.091647 314 3393ft 208kts
23-Jan-17 18:27 33.504180 -112.146085 313 5845ft 261kts
23-Jan-17 18:28 33.571097 -112.185881 341 9235ft 291kts
23-Jan-17 18:29 33.655873 -112.213209 338 10971ft 351kts
23-Jan-17 18:30 33.754226 -112.244848 337 13327ft 375kts
23-Jan-17 18:31 33.856890 -112.276852 334 15729ft 387kts
23-Jan-17 18:32 33.962299 -112.310682 331 18059ft 397kts
23-Jan-17 18:33 34.060456 -112.364524 304 19841ft 373kts
23-Jan-17 18:34 34.139201 -112.444851 303 22182ft 374kts
23-Jan-17 18:35 34.219538 -112.526243 303 23838ft 382kts
23-Jan-17 18:36 34.301958 -112.609847 302 25262ft 391kts
23-Jan-17 18:37 34.386249 -112.695350 302 26449ft 401kts
23-Jan-17 18:38 34.472733 -112.783132 303 27597ft 409kts
23-Jan-17 18:39 34.560844 -112.872571 303 28548ft 418kts
23-Jan-17 18:40 34.647553 -112.966713 300 29405ft 421kts
23-Jan-17 18:41 34.735018 -113.062605 300 30200ft 426kts
23-Jan-17 18:42 34.822975 -113.159111 300 31138ft 426kts
23-Jan-17 18:43 34.911092 -113.255874 300 32029ft 425kts
23-Jan-17 18:44 34.989897 -113.358027 282 32588ft 391kts
23-Jan-17 18:45 35.028187 -113.476646 278 33688ft 373kts
23-Jan-17 18:46 35.067612 -113.594702 277 33802ft 375kts
23-Jan-17 18:47 35.105772 -113.712891 277 33799ft 376kts
23-Jan-17 18:48 35.144109 -113.832353 277 33800ft 377kts
23-Jan-17 18:49 35.182219 -113.951845 277 33799ft 378kts
23-Jan-17 18:50 35.220228 -114.071833 278 33796ft 380kts
23-Jan-17 18:51 35.258722 -114.192734 278 33798ft 381kts
23-Jan-17 18:52 35.296719 -114.313175 278 33801ft 381kts
23-Jan-17 18:53 35.334858 -114.434768 278 33807ft 382kts
23-Jan-17 18:54 35.372935 -114.556354 278 33796ft 383kts
23-Jan-17 18:55 35.411063 -114.678798 278 33794ft 384kts
23-Jan-17 18:56 35.451977 -114.800488 288 33795ft 398kts
23-Jan-17 18:57 35.526490 -114.908458 297 33789ft 419kts
23-Jan-17 18:58 35.602606 -115.016887 298 33782ft 420kts
23-Jan-17 18:59 35.679432 -115.125632 298 33784ft 422kts
23-Jan-17 19:00 35.756833 -115.235117 299 33776ft 423kts
23-Jan-17 19:01 35.834136 -115.344617 300 33779ft 425kts
23-Jan-17 19:02 35.911745 -115.454733 300 33778ft 426kts
23-Jan-17 19:03 35.989481 -115.565318 300 33759ft 426kts
23-Jan-17 19:04 36.068466 -115.676288 299 33749ft 429kts
23-Jan-17 19:05 36.145904 -115.788365 299 33744ft 429kts
23-Jan-17 19:06 36.223837 -115.900612 300 33746ft 430kts
23-Jan-17 19:07 36.301741 -116.013209 300 33746ft 429kts
23-Jan-17 19:08 36.364637 -116.105158 301 33749ft 429kts
23-Jan-17 19:09 36.442687 -116.217735 301 33765ft 429kts
23-Jan-17 19:10 36.520198 -116.330391 301 33768ft 430kts
23-Jan-17 19:11 36.597609 -116.443597 301 33764ft 430kts
23-Jan-17 19:12 36.675072 -116.557198 302 33770ft 431kts
23-Jan-17 19:13 36.752850 -116.671598 302 33772ft 432kts
23-Jan-17 19:14 36.833261 -116.783357 310 33773ft 439kts
23-Jan-17 19:15 36.925299 -116.884479 311 33768ft 441kts
23-Jan-17 19:16 37.017276 -116.986161 311 33771ft 442kts
23-Jan-17 19:17 37.109169 -117.087846 311 33768ft 441kts
23-Jan-17 19:18 37.201262 -117.190223 311 33782ft 441kts
23-Jan-17 19:19 37.292906 -117.292469 312 33783ft 441kts
23-Jan-17 19:20 37.384385 -117.394992 312 33784ft 441kts
23-Jan-17 19:21 37.474917 -117.498555 304 33775ft 437kts
23-Jan-17 19:22 37.490102 -117.528789 290 33781ft 428kts
23-Jan-17 19:23 37.505091 -117.673597 273 33786ft 418kts
23-Jan-17 19:24 37.518402 -117.818936 273 33792ft 418kts
23-Jan-17 19:25 37.530711 -117.964653 273 33796ft 419kts
23-Jan-17 19:26 37.542428 -118.110939 273 33799ft 418kts
23-Jan-17 19:27 37.554160 -118.256642 273 33801ft 418kts
23-Jan-17 19:28 37.565504 -118.402131 273 33800ft 417kts
23-Jan-17 19:29 37.576658 -118.547368 273 33790ft 417kts
23-Jan-17 19:30 37.587597 -118.692581 273 33775ft 416kts
23-Jan-17 19:31 37.598384 -118.838246 273 33768ft 416kts
23-Jan-17 19:32 37.608864 -118.983340 273 33776ft 416kts
23-Jan-17 19:33 37.619170 -119.128987 273 33786ft 416kts
23-Jan-17 19:34 37.629364 -119.274211 273 33806ft 416kts
23-Jan-17 19:35 37.639496 -119.419583 274 33830ft 417kts
23-Jan-17 19:36 37.649333 -119.565054 273 33859ft 417kts
23-Jan-17 19:37 37.659313 -119.710749 274 33885ft 417kts
23-Jan-17 19:38 37.668762 -119.856912 274 33947ft 417kts
23-Jan-17 19:39 37.678076 -120.002847 274 33948ft 418kts
23-Jan-17 19:40 37.687078 -120.146994 273 32961ft 406kts
23-Jan-17 19:41 37.695348 -120.287455 273 30698ft 395kts
23-Jan-17 19:42 37.701705 -120.423596 266 28639ft 380kts
23-Jan-17 19:43 37.683133 -120.551871 261 26678ft 366kts
23-Jan-17 19:44 37.667643 -120.677032 262 24782ft 360kts
23-Jan-17 19:45 37.652922 -120.799213 261 22940ft 346kts
23-Jan-17 19:46 37.638632 -120.916791 262 21251ft 333kts
23-Jan-17 19:47 37.623923 -121.031437 261 19596ft 326kts
23-Jan-17 19:48 37.608920 -121.142885 261 18000ft 319kts
23-Jan-17 19:49 37.594287 -121.251947 261 16517ft 312kts
23-Jan-17 19:50 37.581692 -121.359683 262 14720ft 307kts
23-Jan-17 19:51 37.569523 -121.464937 262 12955ft 299kts
23-Jan-17 19:52 37.557803 -121.566274 262 11588ft 279kts
23-Jan-17 19:53 37.542540 -121.660339 253 10533ft 273kts
23-Jan-17 19:54 37.520629 -121.751418 254 9313ft 267kts
23-Jan-17 19:55 37.499819 -121.838614 253 8150ft 257kts
23-Jan-17 19:56 37.497571 -121.922470 280 7217ft 241kts
23-Jan-17 19:57 37.509211 -122.005244 279 5850ft 238kts
23-Jan-17 19:58 37.520750 -122.086800 279 4573ft 227kts
23-Jan-17 19:59 37.531406 -122.155884 283 3488ft 187kts
23-Jan-17 20:00 37.551186 -122.213520 294 2535ft 166kts
23-Jan-17 20:01 37.572023 -122.263714 294 1686ft 152kts
23-Jan-17 20:02 37.591113 -122.309119 295 906ft 146kts
23-Jan-17 20:03 37.610744 -122.355914 296 131ft 152kts
23-Jan-17 20:04 37.623383 -122.386271 296 27ft 45kts
23-Jan-17 20:05 37.623862 -122.389160 209 27ft 0kts
23-Jan-17 20:06 37.623597 -122.389354 211 27ft 9kts
23-Jan-17 20:07 37.621532 -122.386536 118 27ft 18kts
23-Jan-17 20:08 37.620346 -122.383700 117 27ft 19kts
23-Jan-17 20:09 37.618555 -122.379939 144 27ft 10kts
23-Jan-17 20:10 37.617317 -122.379703 48 27ft 14kts
23-Jan-17 20:11 37.617867 -122.380596 256 27ft 0kts
23-Jan-17 20:12 37.617860 -122.380636 256 27ft 0kts
23-Jan-17 20:13 37.617860 -122.380636 256 27ft 0kts
23-Jan-17 20:14 37.617860 -122.380636 256 27ft 0kts
23-Jan-17 20:15 37.617860 -122.380636 256 27ft 0kts
23-Jan-17 20:16 37.617860 -122.380636 256 27ft 0kts
23-Jan-17 20:17 37.566249 -122.249941 295 1922ft 157kts
23-Jan-17 20:18 37.585660 -122.296250 295 1135ft 146kts
23-Jan-17 20:19 37.618868 -122.375474 296 27ft 99kts

Navigation Log

Ident Type
Flight plan parsing failed, navigation log unavailable